Hovedside
METAR-TAF:

METAR-TAF

Lufthavner :

Örnsköldsvik, Sverige

Örnsköldsvik lufthavn

breddegrad: 63-24N, lengdegrad: 018-58E, høyde over havet: 103 m

Gjeldene værobservasjon

Denne rapporten ble laget for 23 minutter siden, klokken 04:20 UTC
Vind 8 kt fra Nord-nordøst, skiftende mellom Nord og Øst-nordøst
Temperatur 0°C
Luftfuktighet 86%
Trykk 1002 hPa
Sikt 10 km eller mer
Brutte skyer i en høyde av 1000 ft
lett snø

METAR: ESNO 250420Z 03008KT 360V060 9999 -SN BKN010 M00/M02 Q1002

Tid: 06:43 (04:43 UTC)

Varsel

Denne rapporten ble laget for 1 time og 13 minutter siden, klokken 03:30 UTC
Varsel gyldig fra 25. klokken 04 UTC til 25. klokken 12 UTC
Vind 8 kt fra Nordøst
Sikt 10 km eller mer
Overskyet i en høyde av 800 ft
Midlertidig
fra 25. klokken 04 UTC til 25. klokken 08 UTC
Brutte skyer i en høyde av 1000 ft
Blir
fra 25. klokken 08 UTC til 25. klokken 10 UTC
Brutte skyer i en høyde av 1500 ft

TAF: ESNO 250330Z 2504/2512 04008KT 9999 OVC008 TEMPO 2504/2508 BKN010 BECMG 2508/2510 BKN015

Værobservasjoner og værvarsel for over 4000 flyplasser (METAR- og TAF-rapporter).

Tilgjengelige stasjoner er representert av de røde og gule prikkene på kartet.

Hold musepekeren over prikken for å se navnet på stasjonen.

Klikk så for å se værobservasjoner og -varsler.

For å forandre kartet kan du klikke på den grønne knappen med svart kryss for å zoome inn, på den grønne knappen med strek for å zoome ut, eller på de grønne pilene for å se tilstøtende kart.


METAR-TAF: